Terminal Aerodrome Forecast
Issued by NWS

Current Version | Previous Version | Text Only | Print | Product List | Glossary On
Versions: 1 2 3 4 5 6 7 8 9 10 11 12 13 14 15 16 17 18 19
492
FTUS43 KBIS 260227 AAA
TAFJMS
TAF AMD
KJMS 260227Z 2602/2624 21011KT P6SM OVC200
     FM260600 36017G26KT P6SM BKN120
     FM261000 35012KT P6SM SCT250
     FM261700 32016G23KT P6SM SKC=

USA.gov is the U.S. government's official web portal to all federal, state and local government web resources and services.